Time;durP1;ratioP1;P1;durP2;ratioP2;P2;SDS_P1;SDS_P2;PMS_P1;PMS_P2;Temp;Humidity;BMP_temperature;BMP_pressure;BME280_temperature;BME280_humidity;BME280_pressure;Samples;Min_cycle;Max_cycle;Signal;HPM_P1;HPM_P2
2023/06/12 00:01:06;;;;;;;1997.40;999.90;;;;;;;33.33;24.27;101577.22;5071679;28;20059;-63
2023/06/12 00:03:32;;;;;;;1999.90;999.90;;;;;;;33.64;23.73;101580.53;5089016;28;20024;-62
2023/06/12 00:05:59;;;;;;;1999.90;999.90;;;;;;;33.23;24.13;101583.47;5089122;28;20023;-63
2023/06/12 00:08:29;;;;;;;1999.90;999.90;;;;;;;33.38;24.02;101585.75;5084064;28;20044;-63
2023/06/12 00:10:55;;;;;;;1994.40;999.90;;;;;;;33.17;24.02;101581.34;5049830;28;20040;-63
2023/06/12 00:13:21;;;;;;;1999.90;999.90;;;;;;;33.35;23.58;101586.06;5051002;28;20033;-62
2023/06/12 00:15:46;;;;;;;1999.90;999.90;;;;;;;33.33;23.85;101579.91;5068424;28;20029;-63
2023/06/12 00:18:12;;;;;;;1999.90;999.90;;;;;;;33.43;24.61;101578.03;5071565;28;20146;-62
2023/06/12 00:20:38;;;;;;;1999.90;999.90;;;;;;;32.68;24.31;101577.81;5088897;28;20036;-62
2023/06/12 00:23:04;;;;;;;1977.53;999.90;;;;;;;32.92;23.89;101574.69;5089430;28;20110;-63
2023/06/12 00:25:29;;;;;;;1999.90;999.90;;;;;;;33.13;23.83;101577.22;5088644;28;20476;-62
2023/06/12 00:27:55;;;;;;;1999.90;999.90;;;;;;;33.49;24.27;101583.69;5067652;28;20325;-63
2023/06/12 00:30:21;;;;;;;1999.90;999.90;;;;;;;33.15;23.92;101586.03;5066019;28;20021;-62
2023/06/12 00:32:46;;;;;;;1999.90;999.90;;;;;;;33.30;24.21;101578.34;5049671;28;20044;-63
2023/06/12 00:35:11;;;;;;;1999.90;999.90;;;;;;;33.43;23.98;101583.47;5050971;28;20508;-62
2023/06/12 00:37:41;;;;;;;1999.90;999.90;;;;;;;33.14;23.92;101578.94;5067348;28;20397;-62
2023/06/12 00:40:10;;;;;;;1999.90;999.90;;;;;;;33.36;24.82;101582.31;5051511;28;20024;-63
2023/06/12 00:42:45;;;;;;;1999.90;999.90;;;;;;;33.58;23.03;101581.09;5054732;28;20465;-62
2023/06/12 00:45:14;;;;;;;1999.90;999.90;;;;;;;33.25;23.70;101584.22;5055125;28;20070;-62
2023/06/12 00:47:40;;;;;;;1999.90;999.90;;;;;;;32.85;24.09;101587.97;5066868;28;20038;-63
2023/06/12 00:50:11;;;;;;;1999.90;999.90;;;;;;;32.75;24.26;101589.81;5092961;28;20035;-63
2023/06/12 00:52:39;;;;;;;1999.90;999.90;;;;;;;33.10;24.85;101591.06;5072128;28;20048;-62
2023/06/12 00:55:05;;;;;;;1999.90;999.90;;;;;;;33.14;24.27;101595.19;5054347;28;20508;-63
2023/06/12 00:57:31;;;;;;;1999.90;999.90;;;;;;;32.80;25.18;101588.38;5072778;28;20028;-63
2023/06/12 00:59:56;;;;;;;1999.90;999.90;;;;;;;32.23;24.53;101588.19;5071566;28;20483;-63
2023/06/12 01:02:22;;;;;;;1999.90;999.90;;;;;;;32.38;24.68;101594.00;5053872;28;20423;-62
2023/06/12 01:04:50;;;;;;;1999.90;999.90;;;;;;;32.97;24.81;101592.22;5053936;28;20024;-63
2023/06/12 01:07:29;;;;;;;1999.90;999.90;;;;;;;32.92;24.32;101591.78;5053636;28;20476;-63
2023/06/12 01:09:54;;;;;;;1999.90;999.90;;;;;;;32.76;24.69;101591.53;5072668;28;20097;-62
2023/06/12 01:12:20;;;;;;;1999.90;999.90;;;;;;;33.02;25.07;101597.19;5079023;28;20028;-62
2023/06/12 01:14:45;;;;;;;1999.90;999.90;;;;;;;32.33;24.56;101595.44;5053243;28;20468;-62
2023/06/12 01:17:11;;;;;;;1999.90;999.90;;;;;;;32.96;24.61;101598.63;5054462;28;20028;-62
2023/06/12 01:19:36;;;;;;;1999.90;999.90;;;;;;;33.17;24.31;101589.47;5054040;28;20024;-62
2023/06/12 01:22:05;;;;;;;1999.90;999.90;;;;;;;33.35;23.56;101597.72;5061676;28;20036;-63
2023/06/12 01:24:46;;;;;;;1999.90;999.90;;;;;;;33.30;25.30;101595.47;5071269;28;20042;-63
2023/06/12 01:27:41;;;;;;;1557.15;999.90;;;;;;;32.63;24.19;101592.63;5091756;28;20480;-62
2023/06/12 01:30:25;;;;;;;1529.88;999.90;;;;;;;33.18;25.25;101596.59;5053797;28;20032;-62
2023/06/12 01:32:51;;;;;;;1582.35;999.90;;;;;;;32.54;24.38;101590.78;5052995;28;20480;-63
2023/06/12 01:35:23;;;;;;;1446.80;999.90;;;;;;;32.92;24.11;101597.22;5072355;28;20830;-63
2023/06/12 01:38:00;;;;;;;1333.22;999.90;;;;;;;32.47;24.50;101600.44;5091922;28;20032;-63
2023/06/12 01:40:28;;;;;;;1488.53;999.90;;;;;;;32.39;24.19;101594.88;5090008;28;20069;-62
2023/06/12 01:42:54;;;;;;;1536.93;999.90;;;;;;;33.11;25.08;101606.28;5089949;28;20036;-63
2023/06/12 01:45:19;;;;;;;1643.50;999.90;;;;;;;32.86;24.38;101600.47;5090101;28;20042;-63
2023/06/12 01:47:45;;;;;;;1440.82;999.90;;;;;;;31.65;25.11;101596.91;5071445;28;20058;-63
2023/06/12 01:50:12;;;;;;;1623.63;999.90;;;;;;;32.71;24.51;101600.03;5056884;28;20028;-63
2023/06/12 01:52:38;;;;;;;1731.57;999.90;;;;;;;31.66;25.35;101598.63;5070210;28;20013;-63
2023/06/12 01:55:04;;;;;;;1618.22;999.90;;;;;;;32.29;24.91;101601.13;5053787;28;20102;-63
2023/06/12 01:57:32;;;;;;;1876.85;999.90;;;;;;;32.75;25.24;101595.22;5070976;28;20020;-63
2023/06/12 01:59:59;;;;;;;1747.55;999.90;;;;;;;32.83;24.62;101600.78;5070308;28;20476;-63
2023/06/12 02:02:26;;;;;;;1999.90;999.90;;;;;;;33.06;25.08;101597.78;5051079;28;20633;-63
2023/06/12 02:04:52;;;;;;;1999.90;999.90;;;;;;;32.70;24.45;101597.50;5072203;28;20028;-63
2023/06/12 02:07:17;;;;;;;1999.90;999.90;;;;;;;32.97;25.62;101603.06;5072822;28;20387;-63
2023/06/12 02:09:43;;;;;;;1999.90;999.90;;;;;;;32.58;24.62;101600.31;5072291;28;20040;-63
2023/06/12 02:12:08;;;;;;;1999.90;999.90;;;;;;;31.99;25.96;101609.28;5072459;28;20073;-63
2023/06/12 02:14:37;;;;;;;1999.90;999.90;;;;;;;32.16;25.48;101600.53;5053490;28;20365;-64
2023/06/12 02:17:02;;;;;;;1999.90;999.90;;;;;;;32.20;25.78;101607.38;5060145;28;20074;-63
2023/06/12 02:19:28;;;;;;;1999.90;999.90;;;;;;;32.69;25.78;101602.03;5073443;28;20059;-63
2023/06/12 02:21:58;;;;;;;1986.97;999.90;;;;;;;32.73;24.71;101610.75;5090862;28;20280;-63
2023/06/12 02:24:29;;;;;;;1999.90;999.90;;;;;;;32.42;25.51;101610.81;5070123;28;20035;-63
2023/06/12 02:26:55;;;;;;;1999.90;999.90;;;;;;;32.68;24.84;101605.72;5090649;28;20056;-63
2023/06/12 02:29:20;;;;;;;1999.90;999.90;;;;;;;32.02;27.29;101609.84;5073040;28;20034;-63
2023/06/12 02:31:45;;;;;;;1999.90;999.90;;;;;;;32.25;25.35;101610.50;5071910;28;20020;-63
2023/06/12 02:34:11;;;;;;;1999.90;794.63;;;;;;;32.35;25.68;101610.53;5075002;28;20480;-63
2023/06/12 02:36:42;;;;;;;1999.90;999.90;;;;;;;31.63;26.22;101620.50;5087985;28;20408;-63
2023/06/12 02:39:09;;;;;;;1999.90;999.90;;;;;;;32.12;26.00;101613.44;5052115;28;20122;-63
2023/06/12 02:41:38;;;;;;;1999.90;999.90;;;;;;;31.70;25.73;101607.31;5069303;28;20024;-63
2023/06/12 02:44:04;;;;;;;1999.90;853.67;;;;;;;31.95;25.98;101604.13;5055620;28;20032;-63
2023/06/12 02:46:29;;;;;;;1999.90;999.90;;;;;;;31.93;26.38;101614.25;5068376;28;20039;-63
2023/06/12 02:48:54;;;;;;;1999.90;999.90;;;;;;;32.07;25.72;101613.00;5061401;28;20390;-63
2023/06/12 02:51:20;;;;;;;1999.90;999.90;;;;;;;31.91;26.75;101608.09;5089803;28;20043;-63
2023/06/12 02:53:45;;;;;;;1999.90;999.90;;;;;;;31.85;26.34;101603.25;5071508;28;20795;-63
2023/06/12 02:56:10;;;;;;;1999.90;999.90;;;;;;;32.17;26.40;101604.94;5072432;28;20130;-63
2023/06/12 02:58:36;;;;;;;1999.90;999.90;;;;;;;31.99;25.41;101603.88;5070782;28;20093;-63
2023/06/12 03:01:04;;;;;;;1538.97;638.42;;;;;;;31.34;26.60;101601.41;5090572;28;20501;-63
2023/06/12 03:03:29;;;;;;;1999.90;999.90;;;;;;;31.41;27.33;101605.31;5088523;28;20036;-63
2023/06/12 03:05:55;;;;;;;1999.90;940.83;;;;;;;31.53;26.22;101608.75;5089344;28;20043;-63
2023/06/12 03:08:20;;;;;;;1999.90;999.90;;;;;;;31.74;25.81;101606.06;5090471;28;20068;-64
2023/06/12 03:10:45;;;;;;;1999.90;999.90;;;;;;;31.97;26.41;101607.56;5071786;28;20387;-63
2023/06/12 03:13:12;;;;;;;1999.90;999.90;;;;;;;31.16;26.72;101596.63;5060796;28;20073;-62
2023/06/12 03:15:37;;;;;;;1999.90;999.90;;;;;;;31.46;26.72;101613.84;5051824;28;20032;-63
2023/06/12 03:18:03;;;;;;;1999.90;999.90;;;;;;;31.45;26.49;101606.75;5051925;28;20032;-63
2023/06/12 03:20:28;;;;;;;1999.90;999.90;;;;;;;30.72;27.28;101610.19;5073092;28;20085;-63
2023/06/12 03:22:54;;;;;;;1999.90;999.90;;;;;;;30.86;27.50;101617.09;5089676;28;20205;-63
2023/06/12 03:25:19;;;;;;;1999.90;999.90;;;;;;;30.01;27.96;101612.41;5068805;28;20044;-63
2023/06/12 03:27:45;;;;;;;1999.90;999.90;;;;;;;29.79;30.25;101620.31;5070421;28;20047;-63
2023/06/12 03:30:12;;;;;;;1999.90;999.90;;;;;;;30.29;28.02;101608.28;5067433;28;20055;-63
2023/06/12 03:32:37;;;;;;;1999.90;999.90;;;;;;;30.06;28.64;101612.84;5051424;28;20028;-63
2023/06/12 03:35:03;;;;;;;1999.90;999.90;;;;;;;29.78;28.45;101623.97;5077282;28;20043;-63
2023/06/12 03:37:29;;;;;;;1999.90;999.90;;;;;;;29.88;28.36;101621.47;5088443;28;20073;-63
2023/06/12 03:39:54;;;;;;;1999.90;999.90;;;;;;;30.31;28.27;101625.22;5051414;28;20032;-63
2023/06/12 03:42:20;;;;;;;1999.90;999.90;;;;;;;30.49;27.81;101620.19;5050936;28;20067;-63
2023/06/12 03:44:45;;;;;;;1999.90;999.90;;;;;;;30.84;27.68;101619.06;5053453;28;20032;-63
2023/06/12 03:47:11;;;;;;;1999.90;999.90;;;;;;;30.80;26.93;101614.91;5069076;28;20476;-63
2023/06/12 03:49:38;;;;;;;1999.90;999.90;;;;;;;30.65;27.46;101618.91;5049555;28;20082;-63
2023/06/12 03:52:04;;;;;;;1999.90;999.90;;;;;;;30.85;27.99;101620.78;5069247;28;20101;-64
2023/06/12 03:54:29;;;;;;;1999.90;999.90;;;;;;;30.82;27.69;101621.03;5067966;28;20092;-63
2023/06/12 03:56:55;;;;;;;1999.90;999.90;;;;;;;31.13;28.90;101626.56;5066701;28;20075;-63
2023/06/12 03:59:20;;;;;;;1999.90;999.90;;;;;;;31.06;27.19;101633.47;5075874;28;20099;-63
2023/06/12 04:01:48;;;;;;;1999.90;999.90;;;;;;;30.93;27.08;101626.38;5089018;28;20028;-63
2023/06/12 04:04:14;;;;;;;1999.90;999.90;;;;;;;31.09;27.93;101631.38;5065843;28;20052;-63
2023/06/12 04:06:41;;;;;;;1999.90;999.90;;;;;;;30.99;27.31;101633.09;5067904;28;20090;-64
2023/06/12 04:09:12;;;;;;;1999.90;999.90;;;;;;;30.68;27.73;101630.31;5068213;28;20391;-63
2023/06/12 04:11:40;;;;;;;1999.90;999.90;;;;;;;30.99;26.93;101637.66;5051093;28;20024;-62
2023/06/12 04:14:07;;;;;;;1999.90;999.90;;;;;;;31.20;27.61;101637.69;5069175;28;20026;-63
2023/06/12 04:16:32;;;;;;;1999.90;875.92;;;;;;;31.00;26.96;101631.28;5058665;28;20036;-63
2023/06/12 04:19:03;;;;;;;1999.90;999.90;;;;;;;30.55;27.34;101638.53;5065503;28;20031;-62
2023/06/12 04:21:33;;;;;;;1999.90;999.90;;;;;;;30.24;28.44;101638.34;5051191;28;20064;-62
2023/06/12 04:24:03;;;;;;;1999.90;999.90;;;;;;;30.10;28.29;101641.28;5049592;28;20033;-62
2023/06/12 04:26:29;;;;;;;1999.90;999.90;;;;;;;29.86;28.67;101644.97;5057686;28;20042;-62
2023/06/12 04:28:56;;;;;;;1999.90;999.90;;;;;;;29.81;28.70;101646.28;5070745;28;20512;-62
2023/06/12 04:31:23;;;;;;;1999.90;999.90;;;;;;;30.58;28.04;101641.00;5063000;28;20055;-63
2023/06/12 04:33:51;;;;;;;1999.90;987.22;;;;;;;30.97;27.34;101643.19;5050578;28;20543;-63
2023/06/12 04:36:17;;;;;;;1999.90;999.90;;;;;;;30.77;27.78;101648.38;5053106;28;20063;-63
2023/06/12 04:38:43;;;;;;;1999.90;999.90;;;;;;;30.74;27.27;101647.81;5055110;28;20031;-63
2023/06/12 04:41:10;;;;;;;1999.90;999.90;;;;;;;31.22;27.14;101646.53;5071168;28;20446;-63
2023/06/12 04:43:36;;;;;;;1999.90;999.90;;;;;;;30.73;27.45;101643.38;5070653;28;20122;-63
2023/06/12 04:46:02;;;;;;;1902.95;999.90;;;;;;;31.69;26.48;101651.53;5088541;28;20031;-63
2023/06/12 04:48:28;;;;;;;1586.85;999.90;;;;;;;32.17;25.53;101645.50;5069226;28;20029;-63
2023/06/12 04:50:54;;;;;;;1270.93;999.90;;;;;;;33.09;24.87;101648.91;5050546;28;20085;-63
2023/06/12 04:53:30;;;;;;;1072.93;969.33;;;;;;;34.13;23.41;101640.81;5055432;28;20030;-63
2023/06/12 04:55:56;;;;;;;1153.22;999.90;;;;;;;34.68;22.49;101644.50;5068643;28;20049;-63
2023/06/12 04:58:22;;;;;;;1020.85;927.08;;;;;;;34.58;22.81;101644.56;5053253;28;20036;-63
2023/06/12 05:00:50;;;;;;;1001.38;911.50;;;;;;;34.77;22.64;101643.53;5070377;28;20036;-63
2023/06/12 05:03:17;;;;;;;1013.63;921.50;;;;;;;35.41;22.69;101645.31;5070924;28;20031;-62
2023/06/12 05:05:44;;;;;;;930.92;853.72;;;;;;;35.71;21.29;101649.41;5068453;28;20032;-63
2023/06/12 05:08:10;;;;;;;780.65;723.13;;;;;;;35.96;21.53;101644.94;5055037;28;20407;-63
2023/06/12 05:10:35;;;;;;;714.55;664.10;;;;;;;36.21;20.80;101653.19;5055623;28;20031;-63
2023/06/12 05:13:02;;;;;;;833.65;755.60;;;;;;;35.78;21.11;101652.31;5070076;28;20066;-63
2023/06/12 05:15:28;;;;;;;896.90;825.60;;;;;;;36.25;21.45;101653.72;5070701;28;20040;-63
2023/06/12 05:17:53;;;;;;;996.17;908.47;;;;;;;36.26;20.49;101649.97;5066474;28;20460;-63
2023/06/12 05:20:19;;;;;;;1209.28;999.90;;;;;;;34.66;22.07;101652.78;5057964;28;20400;-63
2023/06/12 05:22:45;;;;;;;1614.07;999.90;;;;;;;34.92;22.25;101657.44;5068282;28;20032;-63
2023/06/12 05:25:10;;;;;;;1727.72;999.90;;;;;;;33.95;23.84;101654.31;5051672;28;20060;-63
2023/06/12 05:27:36;;;;;;;1999.90;999.90;;;;;;;33.77;23.92;101656.09;5049760;28;20020;-63
2023/06/12 05:30:02;;;;;;;1999.90;999.90;;;;;;;33.40;24.14;101654.16;5071619;28;20103;-63
2023/06/12 05:32:28;;;;;;;1999.90;999.90;;;;;;;33.45;23.76;101651.88;5054281;28;20090;-63
2023/06/12 05:34:53;;;;;;;1999.90;999.90;;;;;;;33.67;24.27;101645.25;5071030;28;20575;-63
2023/06/12 05:37:19;;;;;;;1999.90;999.90;;;;;;;32.39;25.46;101654.41;5064119;28;20476;-63
2023/06/12 05:39:45;;;;;;;1999.90;999.90;;;;;;;33.17;25.19;101659.88;5065486;28;20042;-63
2023/06/12 05:42:10;;;;;;;1999.90;999.90;;;;;;;32.76;25.08;101645.66;5073133;28;20012;-63
2023/06/12 05:44:36;;;;;;;1999.90;999.90;;;;;;;32.71;25.37;101647.91;5080379;28;20444;-62
2023/06/12 05:47:01;;;;;;;1999.90;999.90;;;;;;;31.94;25.95;101652.94;5068460;28;20030;-64
2023/06/12 05:49:27;;;;;;;1999.90;999.90;;;;;;;32.63;25.38;101652.16;5073206;28;20111;-63
2023/06/12 05:51:52;;;;;;;1999.90;999.90;;;;;;;32.92;25.08;101645.06;5055901;28;20527;-63
2023/06/12 05:54:18;;;;;;;1999.90;999.90;;;;;;;32.63;25.27;101646.75;5091409;28;20024;-63
2023/06/12 05:56:43;;;;;;;1999.90;999.90;;;;;;;32.86;25.23;101659.19;5072715;28;20172;-63
2023/06/12 05:59:08;;;;;;;1999.90;999.90;;;;;;;32.52;25.95;101657.69;5073666;28;20484;-63
2023/06/12 06:01:35;;;;;;;1999.90;999.90;;;;;;;33.14;25.01;101657.47;5091036;28;20395;-63
2023/06/12 06:04:01;;;;;;;1999.90;999.90;;;;;;;33.07;24.85;101654.47;5066348;28;20034;-63
2023/06/12 06:06:27;;;;;;;1999.90;999.90;;;;;;;33.35;25.45;101667.31;5055796;28;20029;-63
2023/06/12 06:08:53;;;;;;;1999.90;999.90;;;;;;;33.58;25.21;101657.84;5058859;28;20502;-63
2023/06/12 06:11:19;;;;;;;1999.90;999.90;;;;;;;33.73;24.64;101663.66;5090932;28;20028;-63
2023/06/12 06:13:45;;;;;;;1999.90;999.90;;;;;;;33.22;25.09;101663.03;5072739;28;20032;-63
2023/06/12 06:16:10;;;;;;;1999.90;999.90;;;;;;;33.55;25.03;101662.69;5062018;28;20113;-63
2023/06/12 06:18:40;;;;;;;1999.90;999.90;;;;;;;35.98;22.06;101653.81;5087477;28;20024;-63
2023/06/12 06:21:05;;;;;;;1999.90;999.90;;;;;;;37.57;20.41;101665.59;5083964;28;20066;-63
2023/06/12 06:23:32;;;;;;;1999.90;999.90;;;;;;;37.75;20.24;101667.25;5076095;28;20059;-63
2023/06/12 06:25:57;;;;;;;1999.90;999.90;;;;;;;39.47;18.65;101665.31;5052102;28;20040;-63
2023/06/12 06:28:23;;;;;;;1999.90;999.90;;;;;;;39.63;18.67;101671.72;5071695;28;20024;-63
2023/06/12 06:30:48;;;;;;;1999.90;999.90;;;;;;;40.85;18.40;101671.09;5053950;28;20455;-63
2023/06/12 06:33:14;;;;;;;1999.90;999.90;;;;;;;41.08;17.33;101675.50;5053078;28;20032;-62
2023/06/12 06:35:39;;;;;;;1999.90;999.90;;;;;;;41.27;17.72;101673.97;5054367;28;20544;-63
2023/06/12 06:38:04;;;;;;;1999.90;999.90;;;;;;;41.66;16.34;101675.31;5051912;28;20024;-63
2023/06/12 06:40:30;;;;;;;1999.90;999.90;;;;;;;42.51;16.71;101679.72;5071085;28;20099;-63
2023/06/12 06:42:55;;;;;;;1999.90;999.90;;;;;;;42.89;15.49;101679.16;5050345;28;20134;-63
2023/06/12 06:45:21;;;;;;;1999.90;999.90;;;;;;;42.96;15.13;101677.25;5079797;28;20020;-63
2023/06/12 06:47:46;;;;;;;1999.90;999.90;;;;;;;43.34;15.20;101678.53;5072603;28;20024;-63
2023/06/12 06:50:12;;;;;;;1999.90;999.90;;;;;;;42.98;15.98;101672.41;5078979;28;20486;-63
2023/06/12 06:52:38;;;;;;;1999.90;999.90;;;;;;;43.88;14.49;101679.28;5056156;28;20482;-63
2023/06/12 06:55:04;;;;;;;1999.90;999.90;;;;;;;42.52;15.01;101678.66;5056715;28;20412;-62
2023/06/12 06:57:30;;;;;;;1999.90;999.90;;;;;;;42.51;15.65;101675.09;5075953;28;20028;-62
2023/06/12 06:59:55;;;;;;;1999.90;999.90;;;;;;;42.78;15.74;101679.78;5069286;28;20024;-62
2023/06/12 07:02:21;;;;;;;1999.90;999.90;;;;;;;44.92;14.55;101681.03;5054696;28;20384;-62
2023/06/12 07:04:48;;;;;;;1999.90;999.90;;;;;;;43.26;14.74;101679.59;5067025;28;20039;-62
2023/06/12 07:07:13;;;;;;;1999.90;999.90;;;;;;;44.07;14.29;101684.94;5057471;28;20043;-62
2023/06/12 07:09:39;;;;;;;1999.90;999.90;;;;;;;45.46;14.42;101675.88;5071804;28;20028;-62
2023/06/12 07:12:05;;;;;;;1999.90;999.90;;;;;;;45.08;14.24;101682.41;5055303;28;20031;-61
2023/06/12 07:14:31;;;;;;;1999.90;999.90;;;;;;;46.34;12.94;101682.91;5060263;28;20067;-62
2023/06/12 07:16:56;;;;;;;1999.90;999.90;;;;;;;44.78;13.43;101680.28;5055692;28;20119;-62
2023/06/12 07:19:21;;;;;;;1999.90;999.90;;;;;;;45.32;13.40;101676.03;5070323;28;20511;-61
2023/06/12 07:21:48;;;;;;;1999.90;999.90;;;;;;;47.84;12.55;101683.75;5053579;28;20039;-63
2023/06/12 07:24:17;;;;;;;1999.90;999.90;;;;;;;46.39;12.16;101680.28;5060119;28;20024;-63
2023/06/12 07:26:43;;;;;;;1999.90;999.90;;;;;;;46.70;12.17;101683.91;5062955;28;20028;-63
2023/06/12 07:29:08;;;;;;;1999.90;999.90;;;;;;;45.76;13.07;101667.72;5070063;28;20561;-62
2023/06/12 07:31:37;;;;;;;1999.90;999.90;;;;;;;47.78;11.83;101670.91;5076564;28;20118;-63
2023/06/12 07:34:02;;;;;;;1999.90;999.90;;;;;;;47.32;11.71;101674.31;5051172;28;20020;-63
2023/06/12 07:36:31;;;;;;;1999.90;999.90;;;;;;;46.17;11.60;101679.94;5051619;28;20030;-62
2023/06/12 07:38:57;;;;;;;1999.90;999.90;;;;;;;46.44;12.55;101670.44;5079668;28;20024;-63
2023/06/12 07:41:22;;;;;;;1999.90;999.90;;;;;;;46.75;11.82;101671.28;5076001;28;20043;-63
2023/06/12 07:43:48;;;;;;;1999.90;999.90;;;;;;;47.89;11.52;101664.50;5051217;28;20081;-63
2023/06/12 07:46:14;;;;;;;1999.90;999.90;;;;;;;48.67;10.66;101673.16;5061300;28;20036;-63
2023/06/12 07:48:39;;;;;;;1999.90;999.90;;;;;;;47.38;10.67;101665.06;5079393;28;20023;-63
2023/06/12 07:51:05;;;;;;;1999.90;999.90;;;;;;;46.64;11.31;101679.31;5052674;28;20118;-63
2023/06/12 07:53:31;;;;;;;1999.90;999.90;;;;;;;46.03;11.54;101665.47;5073364;28;20023;-63
2023/06/12 07:55:57;;;;;;;1999.90;999.90;;;;;;;46.98;11.32;101668.53;5044937;28;20079;-63
2023/06/12 07:58:22;;;;;;;1999.90;999.90;;;;;;;45.02;13.34;101673.94;5081121;28;20053;-63
2023/06/12 08:00:49;;;;;;;1999.90;999.90;;;;;;;44.56;12.47;101664.13;5052561;28;20028;-64
2023/06/12 08:03:15;;;;;;;1999.90;999.90;;;;;;;46.22;12.64;101665.41;5077366;28;20538;-63
2023/06/12 08:05:40;;;;;;;1999.90;999.90;;;;;;;45.29;13.21;101670.09;5064413;28;20097;-63
2023/06/12 08:08:06;;;;;;;1999.90;999.90;;;;;;;47.54;12.16;101671.78;5064159;28;20019;-63
2023/06/12 08:10:31;;;;;;;1999.90;999.90;;;;;;;48.64;11.05;101662.59;5061102;28;20023;-64
2023/06/12 08:12:57;;;;;;;1999.90;999.90;;;;;;;46.48;12.02;101671.66;5078001;28;20073;-63
2023/06/12 08:15:22;;;;;;;1999.90;999.90;;;;;;;47.20;11.99;101670.72;5055556;28;20111;-64
2023/06/12 08:17:48;;;;;;;1999.90;999.90;;;;;;;47.39;10.80;101672.28;5090329;28;20020;-63
2023/06/12 08:20:15;;;;;;;1999.90;999.90;;;;;;;45.24;12.23;101668.03;5098984;28;20459;-63
2023/06/12 08:22:42;;;;;;;1999.90;999.90;;;;;;;45.00;12.00;101676.09;5088096;28;20050;-62
2023/06/12 08:25:08;;;;;;;1999.90;999.90;;;;;;;47.16;10.74;101675.88;5088784;28;20028;-62
2023/06/12 08:27:34;;;;;;;1999.90;999.90;;;;;;;44.23;12.32;101667.91;5077764;28;20117;-62
2023/06/12 08:30:00;;;;;;;1999.90;999.90;;;;;;;45.86;10.95;101669.94;5050378;28;20031;-62
2023/06/12 08:32:27;;;;;;;1999.90;999.90;;;;;;;47.16;10.46;101675.06;5070744;28;20551;-62
2023/06/12 08:34:53;;;;;;;1999.90;999.90;;;;;;;44.91;12.62;101666.41;5093627;28;20063;-63
2023/06/12 08:37:19;;;;;;;1999.90;999.90;;;;;;;46.47;11.08;101661.69;5081986;28;20028;-63
2023/06/12 08:39:45;;;;;;;1999.90;999.90;;;;;;;45.83;11.04;101667.63;5067862;28;20032;-63
2023/06/12 08:42:15;;;;;;;1999.90;999.90;;;;;;;46.37;11.60;101667.78;5050416;28;20036;-63
2023/06/12 08:44:46;;;;;;;1999.90;999.90;;;;;;;46.50;11.27;101664.00;5067951;28;20450;-63
2023/06/12 08:47:15;;;;;;;1999.90;999.90;;;;;;;48.10;9.95;101662.13;5069903;28;20028;-63
2023/06/12 08:49:42;;;;;;;1999.90;999.90;;;;;;;48.08;9.85;101654.88;5050223;28;20028;-64
2023/06/12 08:52:09;;;;;;;1999.90;999.90;;;;;;;46.32;11.22;101662.97;5068037;28;20016;-63
2023/06/12 08:54:40;;;;;;;1999.90;999.90;;;;;;;45.57;10.95;101653.06;5050152;28;20476;-63
2023/06/12 08:57:06;;;;;;;1999.90;999.90;;;;;;;44.20;11.80;101660.94;5080029;28;20441;-64
2023/06/12 08:59:32;;;;;;;1999.90;999.90;;;;;;;46.21;11.44;101663.75;5058717;28;20076;-64
2023/06/12 09:01:59;;;;;;;1999.90;999.90;;;;;;;43.65;12.34;101649.50;5068141;28;20468;-63
2023/06/12 09:04:48;;;;;;;1999.90;999.90;;;;;;;45.86;11.43;101656.16;5067596;28;20040;-62
2023/06/12 09:07:17;;;;;;;1999.90;999.90;;;;;;;46.52;10.95;101648.00;5055698;28;20104;-63
2023/06/12 09:09:45;;;;;;;1999.90;999.90;;;;;;;45.78;10.98;101648.16;5063669;28;20032;-63
2023/06/12 09:12:13;;;;;;;1999.90;999.90;;;;;;;45.66;10.76;101640.66;5073666;28;20024;-62
2023/06/12 09:14:40;;;;;;;1999.90;999.90;;;;;;;46.10;11.34;101645.19;5073235;28;20062;-62
2023/06/12 09:17:07;;;;;;;1999.90;999.90;;;;;;;46.44;10.51;101645.56;5072448;28;20032;-62
2023/06/12 09:19:43;;;;;;;1999.90;999.90;;;;;;;45.52;10.71;101644.63;5069557;28;20116;-62
2023/06/12 09:22:10;;;;;;;1999.90;999.90;;;;;;;46.42;10.27;101648.59;5073116;28;20122;-62
2023/06/12 09:24:36;;;;;;;1999.90;999.90;;;;;;;46.66;10.54;101640.38;5060315;28;20024;-63
2023/06/12 09:27:02;;;;;;;1999.90;999.90;;;;;;;47.03;9.78;101654.00;5069548;28;20437;-63
2023/06/12 09:29:39;;;;;;;1999.90;999.90;;;;;;;47.31;9.50;101644.09;5062966;28;20036;-62
2023/06/12 09:32:16;;;;;;;1999.90;999.90;;;;;;;48.39;9.65;101638.88;5073351;28;20537;-62
2023/06/12 09:34:50;;;;;;;1999.90;999.90;;;;;;;48.38;9.51;101642.72;5053368;28;20036;-62
2023/06/12 09:37:16;;;;;;;1999.90;999.90;;;;;;;47.71;9.26;101635.03;5076369;28;20032;-63
2023/06/12 09:39:42;;;;;;;1999.90;999.90;;;;;;;48.03;8.88;101635.41;5069488;28;20039;-64
2023/06/12 09:42:10;;;;;;;1999.90;999.90;;;;;;;48.24;8.02;101639.44;5058377;28;20469;-63
2023/06/12 09:44:38;;;;;;;1999.90;999.90;;;;;;;47.81;9.11;101638.03;5062883;28;20104;-64
2023/06/12 09:47:05;;;;;;;1999.90;999.90;;;;;;;48.53;8.11;101641.31;5079581;28;20551;-63
2023/06/12 09:49:31;;;;;;;1999.90;999.90;;;;;;;47.86;8.55;101645.63;5073572;28;20116;-64
2023/06/12 09:52:02;;;;;;;1999.90;999.90;;;;;;;48.19;9.19;101644.03;5071273;28;20071;-64
2023/06/12 09:54:29;;;;;;;1999.90;999.90;;;;;;;49.71;7.87;101643.09;5073909;28;20048;-63
2023/06/12 09:57:00;;;;;;;1999.90;999.90;;;;;;;49.36;7.78;101649.81;5060313;28;20097;-63
2023/06/12 09:59:32;;;;;;;907.92;835.30;;;;;;;48.50;8.40;101644.59;5057134;28;20464;-63
2023/06/12 10:02:16;;;;;;;908.33;835.85;;;;;;;47.90;8.39;101647.63;5061815;28;20062;-63
2023/06/12 10:05:03;;;;;;;912.55;839.15;;;;;;;47.27;9.04;101649.31;5078662;28;20123;-63
2023/06/12 10:07:32;;;;;;;908.80;835.83;;;;;;;48.41;7.71;101647.75;5091421;28;20383;-63
2023/06/12 10:09:58;;;;;;;920.88;846.30;;;;;;;49.29;7.96;101646.41;5076313;28;20029;-63
2023/06/12 10:12:25;;;;;;;927.33;851.97;;;;;;;46.49;8.88;101648.47;5072311;28;20031;-63
2023/06/12 10:14:52;;;;;;;916.65;842.55;;;;;;;47.03;8.16;101646.56;5087320;28;20476;-63
2023/06/12 10:17:19;;;;;;;1192.78;886.28;;;;;;;46.31;9.24;101644.72;5072813;28;20032;-63
2023/06/12 10:19:47;;;;;;;1999.90;999.90;;;;;;;48.07;7.81;101631.03;5090045;28;20116;-63
2023/06/12 10:22:13;;;;;;;1999.90;999.90;;;;;;;47.70;8.51;101633.34;5072335;28;20468;-63
2023/06/12 10:24:39;;;;;;;1999.90;999.90;;;;;;;47.54;8.42;101635.81;5080102;28;20197;-63
2023/06/12 10:27:06;;;;;;;928.22;853.05;;;;;;;46.64;7.41;101645.31;5085087;28;20031;-63
2023/06/12 10:29:34;;;;;;;934.17;858.28;;;;;;;45.56;8.80;101629.31;5059498;28;20025;-63
2023/06/12 10:32:07;;;;;;;930.22;853.80;;;;;;;45.78;7.87;101631.59;5070004;28;20042;-63
2023/06/12 10:34:34;;;;;;;1999.90;999.90;;;;;;;43.33;9.10;101639.16;5066099;28;20023;-63
2023/06/12 10:37:23;;;;;;;1999.90;999.90;;;;;;;43.75;9.44;101624.25;5069520;28;20039;-63
2023/06/12 10:40:09;;;;;;;1999.90;999.90;;;;;;;44.34;8.78;101623.16;5057200;28;20506;-64
2023/06/12 10:42:53;;;;;;;1999.90;999.90;;;;;;;45.63;9.03;101619.03;5087896;28;20085;-63
2023/06/12 10:45:21;;;;;;;1999.90;999.90;;;;;;;46.54;7.70;101629.28;5061407;28;20036;-64
2023/06/12 10:48:02;;;;;;;927.50;849.40;;;;;;;47.52;8.39;101626.06;5070049;28;20037;-64